Time;durP1;ratioP1;P1;durP2;ratioP2;P2;SDS_P1;SDS_P2;PMS_P1;PMS_P2;Temp;Humidity;BMP_temperature;BMP_pressure;BME280_temperature;BME280_humidity;BME280_pressure;Samples;Min_cycle;Max_cycle;Signal;HPM_P1;HPM_P2
2022/05/01 00:01:11;;;;;;;;;10.00;8.00;;;;;28.61;18.82;101927.81;5076591;28;45511;-82
2022/05/01 00:03:39;;;;;;;;;12.00;9.00;;;;;28.66;18.80;101936.72;5076732;28;45280;-82
2022/05/01 00:06:07;;;;;;;;;14.00;12.67;;;;;28.57;18.85;101920.69;5076372;28;48012;-82
2022/05/01 00:08:34;;;;;;;;;10.00;9.00;;;;;28.56;18.68;101922.53;5077546;28;45464;-82
2022/05/01 00:11:00;;;;;;;;;10.67;8.00;;;;;28.57;19.03;101928.88;5077637;27;45464;-82
2022/05/01 00:13:26;;;;;;;;;11.33;10.33;;;;;28.55;19.03;101928.03;5077668;27;45468;-82
2022/05/01 00:15:53;;;;;;;;;7.00;7.00;;;;;28.56;18.82;101936.19;5077590;27;45527;-82
2022/05/01 00:18:19;;;;;;;;;12.67;11.00;;;;;28.24;19.02;101916.44;5075969;28;45450;-82
2022/05/01 00:20:45;;;;;;;;;10.00;10.00;;;;;28.10;19.36;101894.22;5077688;28;45375;-82
2022/05/01 00:23:11;;;;;;;;;11.00;10.00;;;;;28.37;19.29;101930.50;5077463;27;45375;-82
2022/05/01 00:25:38;;;;;;;;;14.00;11.67;;;;;28.29;19.25;101929.91;5077011;27;46277;-82
2022/05/01 00:28:04;;;;;;;;;10.67;9.33;;;;;28.30;19.26;101939.88;5077332;27;45405;-82
2022/05/01 00:30:30;;;;;;;;;12.33;10.33;;;;;28.32;19.08;101924.31;5075757;28;45381;-82
2022/05/01 00:38:24;;;;;;;;;11.33;10.00;;;;;28.26;19.27;101919.09;5076960;28;45327;-81
2022/05/01 00:40:50;;;;;;;;;13.67;10.33;;;;;28.26;19.28;101899.13;5076953;27;45397;-82
2022/05/01 00:43:15;;;;;;;;;12.33;9.67;;;;;28.36;19.14;101927.84;5075833;28;45638;-81
2022/05/01 00:45:41;;;;;;;;;14.33;10.67;;;;;28.02;19.37;101899.94;5077033;27;45343;-81
2022/05/01 00:48:07;;;;;;;;;12.00;9.33;;;;;28.16;19.40;101923.13;5077033;27;45350;-81
2022/05/01 00:50:32;;;;;;;;;9.67;9.33;;;;;28.00;19.58;101914.59;5077395;28;45219;-81
2022/05/01 00:52:58;;;;;;;;;11.00;11.00;;;;;27.83;19.40;101890.59;5075505;28;45240;-81
2022/05/01 00:55:25;;;;;;;;;13.67;12.00;;;;;27.90;19.67;101919.44;5076329;27;45493;-81
2022/05/01 00:57:51;;;;;;;;;12.00;11.00;;;;;27.83;19.76;101932.44;5076819;27;45320;-81
2022/05/01 01:00:18;;;;;;;;;13.33;10.00;;;;;27.68;19.66;101901.13;5075534;28;45494;-81
2022/05/01 01:02:47;;;;;;;;;13.00;12.00;;;;;27.89;19.83;101936.78;5076798;27;45355;-81
2022/05/01 01:05:13;;;;;;;;;16.00;12.00;;;;;27.83;19.83;101920.59;5076681;27;45484;-81
2022/05/01 01:07:39;;;;;;;;;12.00;11.67;;;;;27.72;19.87;101893.69;5076829;27;45367;-81
2022/05/01 01:10:05;;;;;;;;;14.00;13.00;;;;;27.66;19.98;101902.09;5076396;27;45394;-81
2022/05/01 01:15:14;;;;;;;;;14.00;12.00;;;;;27.67;19.71;101918.41;5076314;28;45788;-82
2022/05/01 01:17:41;;;;;;;;;15.67;14.67;;;;;27.43;20.00;101886.56;5076564;27;45384;-82
2022/05/01 01:20:18;;;;;;;;;12.33;11.67;;;;;27.48;20.32;101885.47;5076659;27;45332;-82
2022/05/01 01:22:48;;;;;;;;;11.33;11.00;;;;;27.41;20.23;101885.69;5076467;27;45363;-82
2022/05/01 01:25:17;;;;;;;;;15.33;12.33;;;;;27.37;20.46;101896.72;5074877;28;47972;-82
2022/05/01 01:27:43;;;;;;;;;15.00;12.67;;;;;27.32;20.37;101904.09;5076354;27;45373;-81
2022/05/01 01:32:54;;;;;;;;;13.00;12.00;;;;;27.46;20.17;101919.16;5076407;28;45438;-81
2022/05/01 01:35:27;;;;;;;;;11.00;11.00;;;;;27.39;20.24;101902.09;5076100;28;46386;-81
2022/05/01 01:37:56;;;;;;;;;13.67;13.67;;;;;27.31;20.14;101901.44;5075792;27;45433;-81
2022/05/01 01:40:37;;;;;;;;;13.33;12.33;;;;;27.16;20.12;101876.47;5074877;28;45496;-81
2022/05/01 01:43:05;;;;;;;;;13.33;11.00;;;;;27.23;20.30;101885.34;5076343;27;45437;-81
2022/05/01 01:45:30;;;;;;;;;11.67;11.00;;;;;27.24;20.17;101897.13;5075724;27;45479;-81
2022/05/01 01:48:07;;;;;;;;;12.67;12.67;;;;;27.29;20.31;101898.75;5076208;27;45369;-82
2022/05/01 01:50:33;;;;;;;;;14.00;13.00;;;;;27.07;20.75;101863.16;5074817;28;45383;-82
2022/05/01 01:52:58;;;;;;;;;15.00;13.33;;;;;27.22;20.59;101886.28;5075488;27;45458;-81
2022/05/01 01:55:23;;;;;;;;;11.67;11.67;;;;;27.27;20.58;101902.47;5070717;27;49355;-81
2022/05/01 01:57:49;;;;;;;;;14.67;12.00;;;;;27.28;20.50;101907.88;5055785;28;45552;-81
2022/05/01 02:00:14;;;;;;;;;14.00;13.33;;;;;27.25;20.49;101898.91;5055651;28;45452;-82
2022/05/01 02:02:40;;;;;;;;;15.00;14.67;;;;;27.30;20.45;101905.09;5055778;28;45364;-82
2022/05/01 02:05:07;;;;;;;;;17.00;15.00;;;;;27.15;20.36;101898.31;5055422;28;46292;-82
2022/05/01 02:07:33;;;;;;;;;14.67;14.00;;;;;27.22;20.62;101900.78;5055119;28;45583;-82
2022/05/01 02:09:59;;;;;;;;;13.67;12.00;;;;;26.96;20.72;101877.13;5055810;28;45447;-81
2022/05/01 02:12:26;;;;;;;;;13.00;13.00;;;;;26.91;20.97;101878.22;5055406;28;45386;-82
2022/05/01 02:14:51;;;;;;;;;15.33;13.00;;;;;26.97;20.95;101868.00;5053822;28;48285;-81
2022/05/01 02:17:16;;;;;;;;;16.67;14.00;;;;;26.96;21.19;101862.59;5055285;28;45447;-81
2022/05/01 02:19:42;;;;;;;;;16.33;13.00;;;;;26.95;20.76;101856.28;5055396;28;45431;-81
2022/05/01 02:22:08;;;;;;;;;14.00;14.00;;;;;27.13;20.64;101881.13;5070819;28;45461;-82
2022/05/01 02:24:34;;;;;;;;;17.33;14.00;;;;;27.07;20.72;101868.59;5055336;28;45445;-81
2022/05/01 02:27:00;;;;;;;;;12.00;10.67;;;;;27.22;21.05;101878.13;5055083;28;45867;-81
2022/05/01 02:29:25;;;;;;;;;15.00;14.00;;;;;26.67;20.76;101804.53;5055391;28;45554;-81
2022/05/01 02:31:53;;;;;;;;;16.33;15.33;;;;;26.93;20.81;101869.03;5055360;28;45439;-82
2022/05/01 02:34:20;;;;;;;;;17.33;16.00;;;;;26.91;21.01;101862.75;5053747;28;47503;-82
2022/05/01 02:36:46;;;;;;;;;15.33;13.00;;;;;27.01;20.94;101866.09;5054855;28;45401;-82
2022/05/01 02:39:13;;;;;;;;;15.67;14.00;;;;;27.09;20.89;101876.72;5055378;28;45402;-82
2022/05/01 02:41:38;;;;;;;;;11.33;11.33;;;;;26.92;20.97;101852.75;5055198;28;45294;-82
2022/05/01 02:44:03;;;;;;;;;18.00;16.00;;;;;26.96;21.19;101868.97;5055012;28;45279;-82
2022/05/01 02:46:29;;;;;;;;;14.67;14.67;;;;;26.88;21.06;101860.16;5054907;28;45428;-82
2022/05/01 02:48:55;;;;;;;;;15.33;14.67;;;;;26.68;20.82;101826.25;5055210;28;45323;-82
2022/05/01 02:51:20;;;;;;;;;18.00;15.00;;;;;26.91;21.26;101867.34;5053470;28;45374;-82
2022/05/01 02:53:46;;;;;;;;;21.00;15.00;;;;;26.99;20.86;101857.97;5055093;28;45532;-82
2022/05/01 02:56:11;;;;;;;;;18.00;17.33;;;;;27.03;21.37;101859.66;5066083;28;45403;-82
2022/05/01 02:58:37;;;;;;;;;15.33;13.67;;;;;27.01;21.32;101849.75;5078713;27;45490;-81
2022/05/01 03:01:02;;;;;;;;;14.67;13.67;;;;;27.17;21.22;101858.28;5077818;28;45695;-81
2022/05/01 03:03:28;;;;;;;;;14.00;12.33;;;;;27.07;21.43;101843.19;5077263;28;47206;-81
2022/05/01 03:05:56;;;;;;;;;18.33;16.00;;;;;27.08;21.12;101851.31;5078549;28;45527;-80
2022/05/01 03:08:21;;;;;;;;;16.33;15.00;;;;;27.07;21.05;101852.25;5078556;27;45471;-81
2022/05/01 03:10:47;;;;;;;;;14.67;12.33;;;;;26.89;21.13;101834.66;5078361;27;45477;-81
2022/05/01 03:13:13;;;;;;;;;13.67;12.67;;;;;27.06;21.55;101861.38;5078723;27;46284;-81
2022/05/01 03:15:39;;;;;;;;;16.33;14.00;;;;;26.98;21.36;101842.56;5077110;28;45473;-81
2022/05/01 03:23:33;;;;;;;;;14.00;14.00;;;;;27.12;20.98;101849.41;5078027;28;45289;-81
2022/05/01 03:25:59;;;;;;;;;18.33;15.00;;;;;27.02;21.40;101837.91;5078428;28;45372;-81
2022/05/01 03:28:25;;;;;;;;;13.67;13.67;;;;;27.11;21.35;101864.84;5078484;27;45846;-81
2022/05/01 03:30:52;;;;;;;;;17.00;15.33;;;;;27.00;21.60;101837.97;5078471;27;45344;-81
2022/05/01 03:33:21;;;;;;;;;21.00;21.00;;;;;26.98;21.14;101847.13;5077774;27;45444;-81
2022/05/01 03:35:47;;;;;;;;;14.33;13.67;;;;;26.83;21.16;101821.28;5077955;27;45364;-80
2022/05/01 03:38:12;;;;;;;;;20.00;15.67;;;;;26.91;21.18;101830.09;5078387;27;45563;-81
2022/05/01 03:40:38;;;;;;;;;21.67;19.67;;;;;26.89;21.18;101821.06;5078199;27;45655;-81
2022/05/01 03:43:04;;;;;;;;;21.67;19.00;;;;;26.83;21.58;101811.25;5077926;27;45413;-81
2022/05/01 03:45:30;;;;;;;;;17.00;16.00;;;;;26.88;21.59;101820.19;5077680;28;45306;-81
2022/05/01 03:47:55;;;;;;;;;20.33;16.00;;;;;26.77;21.17;101814.19;5076620;28;45484;-81
2022/05/01 03:50:21;;;;;;;;;17.33;17.00;;;;;26.74;21.54;101817.03;5078143;27;45552;-81
2022/05/01 03:52:46;;;;;;;;;16.67;14.67;;;;;26.74;21.68;101808.84;5077774;27;45607;-81
2022/05/01 03:55:12;;;;;;;;;18.00;17.67;;;;;26.76;21.38;101817.84;5076500;28;45467;-81
2022/05/01 03:57:38;;;;;;;;;20.33;17.67;;;;;26.75;21.58;101815.19;5077754;27;45427;-80
2022/05/01 04:00:05;;;;;;;;;18.00;17.00;;;;;26.73;21.48;101822.53;5078065;27;45524;-81
2022/05/01 04:02:30;;;;;;;;;18.33;16.67;;;;;26.64;21.43;101824.56;5077410;27;45850;-81
2022/05/01 04:04:57;;;;;;;;;18.00;17.33;;;;;26.52;21.40;101811.31;5076199;28;45546;-81
2022/05/01 04:07:23;;;;;;;;;16.00;15.33;;;;;26.51;21.33;101794.13;5076647;27;45291;-81
2022/05/01 04:09:48;;;;;;;;;19.33;16.00;;;;;26.55;21.11;101805.78;5077689;27;45560;-80
2022/05/01 04:12:14;;;;;;;;;19.00;15.67;;;;;26.59;21.58;101828.34;5077753;27;46027;-81
2022/05/01 04:14:39;;;;;;;;;15.67;14.67;;;;;26.28;21.38;101783.03;5077675;27;45600;-80
2022/05/01 04:17:05;;;;;;;;;17.33;14.00;;;;;26.42;21.38;101816.16;5077573;27;45445;-80
2022/05/01 04:19:30;;;;;;;;;18.67;16.33;;;;;26.38;21.44;101822.63;5077186;27;45411;-81
2022/05/01 04:21:56;;;;;;;;;17.00;17.00;;;;;26.34;21.68;101823.66;5077572;27;45451;-80
2022/05/01 04:24:22;;;;;;;;;14.33;12.00;;;;;26.13;21.87;101814.31;5077324;27;45919;-80
2022/05/01 04:26:47;;;;;;;;;21.67;20.67;;;;;26.10;21.88;101798.97;5076271;28;45403;-80
2022/05/01 04:32:10;;;;;;;;;16.33;15.67;;;;;26.28;21.55;101815.69;5074699;28;46966;-81
2022/05/01 04:34:36;;;;;;;;;21.00;17.67;;;;;26.13;21.66;101809.78;5074755;28;45487;-81
2022/05/01 04:37:02;;;;;;;;;18.00;15.33;;;;;26.17;21.93;101833.22;5075162;28;45702;-81
2022/05/01 04:39:28;;;;;;;;;15.00;15.00;;;;;26.17;21.85;101835.03;5074225;28;45469;-82
2022/05/01 04:41:53;;;;;;;;;18.00;16.33;;;;;26.14;21.76;101822.41;5074881;28;46473;-81
2022/05/01 04:44:19;;;;;;;;;16.33;14.33;;;;;26.16;21.83;101839.59;5057720;28;46010;-81
2022/05/01 04:46:49;;;;;;;;;19.33;18.00;;;;;26.27;21.94;101830.22;5074422;28;45527;-82
2022/05/01 04:49:14;;;;;;;;;15.00;15.00;;;;;26.08;21.88;101810.84;5074902;28;45472;-81
2022/05/01 04:51:40;;;;;;;;;10.00;9.00;;;;;25.94;22.10;101789.47;5074001;28;48431;-81
2022/05/01 04:54:05;;;;;;;;;23.33;18.00;;;;;26.06;21.88;101812.69;5074688;28;45538;-81
2022/05/01 04:57:31;;;;;;;;;16.00;16.00;;;;;25.98;21.76;101818.34;5046191;28;45368;-81
2022/05/01 04:59:25;;;;;;;;;16.33;16.33;;;;;25.99;21.84;101829.19;5029680;28;45596;-81
2022/05/01 05:01:50;;;;;;;;;20.00;17.67;;;;;25.93;21.85;101812.13;5033572;28;46109;-81
2022/05/01 05:04:15;;;;;;;;;19.00;18.33;;;;;26.01;22.28;101811.00;5034116;28;45524;-81
2022/05/01 05:06:41;;;;;;;;;18.67;17.67;;;;;26.09;21.89;101826.22;5035170;28;45423;-81
2022/05/01 05:11:50;;;;;;;;;17.67;15.67;;;;;26.17;21.90;101832.31;5056302;28;45398;-80
2022/05/01 05:14:15;;;;;;;;;16.00;16.00;;;;;26.08;22.07;101838.03;5056276;28;45441;-80
2022/05/01 05:16:41;;;;;;;;;20.33;19.00;;;;;26.08;21.75;101829.88;5056050;28;45485;-80
2022/05/01 05:19:06;;;;;;;;;19.67;17.00;;;;;25.92;21.74;101819.41;5055968;28;45466;-80
2022/05/01 05:21:32;;;;;;;;;16.00;13.67;;;;;26.10;22.14;101852.47;5055977;28;45525;-81
2022/05/01 05:23:57;;;;;;;;;17.33;15.67;;;;;26.14;22.05;101848.72;5056269;28;45474;-80
2022/05/01 05:26:22;;;;;;;;;16.00;16.00;;;;;26.21;22.14;101855.78;5056445;28;45400;-80
2022/05/01 05:28:48;;;;;;;;;17.67;17.00;;;;;26.16;22.05;101828.72;5056020;28;45407;-81
2022/05/01 05:31:13;;;;;;;;;18.67;14.67;;;;;26.45;21.79;101862.31;5055945;28;45937;-81
2022/05/01 05:33:38;;;;;;;;;19.67;18.00;;;;;26.43;21.55;101844.28;5055863;28;45533;-81
2022/05/01 05:36:04;;;;;;;;;19.67;18.00;;;;;26.47;21.94;101860.44;5056196;28;45438;-80
2022/05/01 05:38:29;;;;;;;;;16.00;14.33;;;;;26.52;21.66;101855.75;5056120;28;45479;-81
2022/05/01 05:40:54;;;;;;;;;23.00;20.67;;;;;26.54;21.93;101844.84;5054304;28;47237;-81
2022/05/01 05:43:20;;;;;;;;;13.33;13.33;;;;;26.64;21.64;101870.81;5056004;28;46036;-81
2022/05/01 05:45:45;;;;;;;;;16.67;16.67;;;;;26.65;21.81;101844.47;5055854;28;45381;-81
2022/05/01 05:48:11;;;;;;;;;19.33;18.33;;;;;26.76;21.18;101857.81;5055994;28;45362;-81
2022/05/01 05:50:36;;;;;;;;;19.33;19.33;;;;;26.47;21.78;101840.50;5055749;28;46212;-79
2022/05/01 05:53:02;;;;;;;;;26.00;22.67;;;;;26.47;21.32;101863.19;5055464;28;45461;-81
2022/05/01 05:55:32;;;;;;;;;21.00;19.33;;;;;26.51;22.24;101861.25;5065070;27;45371;-80
2022/05/01 05:57:58;;;;;;;;;21.00;19.00;;;;;26.36;21.90;101860.75;5094971;27;45425;-81
2022/05/01 06:00:25;;;;;;;;;22.33;21.00;;;;;26.45;21.73;101853.28;5095867;27;47502;-81
2022/05/01 06:02:50;;;;;;;;;24.00;22.33;;;;;26.54;22.04;101870.22;5094604;27;45507;-81
2022/05/01 06:05:16;;;;;;;;;26.00;22.67;;;;;26.60;21.69;101855.53;5096569;27;45385;-81
2022/05/01 06:07:41;;;;;;;;;27.67;22.67;;;;;26.47;21.74;101848.66;5096102;27;45567;-81
2022/05/01 06:10:07;;;;;;;;;24.33;21.33;;;;;26.41;21.95;101841.56;5094758;27;46978;-81
2022/05/01 06:12:40;;;;;;;;;23.00;20.67;;;;;26.62;21.52;101845.47;5096035;27;45420;-82
2022/05/01 06:15:05;;;;;;;;;21.33;21.33;;;;;26.61;21.65;101846.44;5095948;27;45272;-81
2022/05/01 06:17:31;;;;;;;;;20.33;20.33;;;;;26.74;22.18;101832.47;5096118;27;45377;-81
2022/05/01 06:19:56;;;;;;;;;25.67;23.00;;;;;26.76;21.85;101831.47;5094556;27;49738;-81
2022/05/01 06:22:22;;;;;;;;;29.00;22.67;;;;;26.63;21.63;101833.66;5096131;27;45513;-80
2022/05/01 06:24:47;;;;;;;;;22.00;22.00;;;;;26.98;21.87;101856.19;5094768;27;45538;-81
2022/05/01 06:27:13;;;;;;;;;24.33;22.67;;;;;27.11;21.65;101844.88;5096375;27;45447;-81
2022/05/01 06:29:38;;;;;;;;;26.67;23.33;;;;;27.20;20.96;101852.72;5095646;27;46191;-81
2022/05/01 06:32:04;;;;;;;;;23.00;22.00;;;;;27.24;21.48;101846.25;5095006;27;45385;-81
2022/05/01 06:34:30;;;;;;;;;24.33;21.33;;;;;27.28;21.23;101834.28;5094683;27;45330;-81
2022/05/01 06:36:55;;;;;;;;;26.00;24.33;;;;;27.51;21.20;101860.81;5095821;27;45416;-81
2022/05/01 06:39:21;;;;;;;;;25.33;21.67;;;;;27.51;20.97;101838.09;5094451;27;47048;-81
2022/05/01 06:41:46;;;;;;;;;24.67;24.33;;;;;27.72;20.91;101850.06;5095263;27;45309;-81
2022/05/01 06:44:11;;;;;;;;;27.00;25.33;;;;;27.63;21.15;101840.41;5095885;27;45353;-80
2022/05/01 06:46:37;;;;;;;;;30.67;27.67;;;;;27.76;20.98;101849.03;5094494;27;45587;-81
2022/05/01 06:49:02;;;;;;;;;26.33;22.00;;;;;27.99;20.98;101870.06;5095574;27;46332;-81
2022/05/01 06:51:27;;;;;;;;;25.00;24.00;;;;;27.94;20.69;101858.38;5095640;27;45531;-81
2022/05/01 06:53:53;;;;;;;;;26.00;24.00;;;;;27.89;21.00;101865.88;5095695;27;45255;-81
2022/05/01 06:56:18;;;;;;;;;25.00;23.33;;;;;27.67;20.78;101863.88;5095265;27;45462;-81
2022/05/01 06:58:43;;;;;;;;;30.00;26.33;;;;;27.62;21.28;101857.69;5095334;27;46441;-80
2022/05/01 07:01:09;;;;;;;;;23.67;22.33;;;;;27.59;21.22;101855.06;5095712;27;45477;-81
2022/05/01 07:03:34;;;;;;;;;25.00;22.00;;;;;27.69;21.11;101870.19;5095638;27;45313;-81
2022/05/01 07:06:02;;;;;;;;;25.00;23.67;;;;;28.02;21.26;101858.16;5095751;27;45380;-81
2022/05/01 07:08:28;;;;;;;;;27.33;24.33;;;;;28.04;21.29;101832.59;5095653;27;45550;-81
2022/05/01 07:10:53;;;;;;;;;24.33;23.00;;;;;27.93;21.06;101825.72;5095133;27;45626;-81
2022/05/01 07:13:19;;;;;;;;;23.00;22.67;;;;;28.19;21.06;101861.13;5095398;27;45408;-80
2022/05/01 07:15:44;;;;;;;;;24.33;22.67;;;;;27.82;21.18;101807.91;5095500;27;45405;-81
2022/05/01 07:18:09;;;;;;;;;26.00;25.00;;;;;28.11;21.00;101824.19;5095333;27;45451;-81
2022/05/01 07:20:35;;;;;;;;;28.00;24.67;;;;;28.09;20.91;101851.50;5093983;27;45383;-81
2022/05/01 07:23:01;;;;;;;;;23.33;22.67;;;;;27.82;21.52;101805.19;5095393;27;45500;-81
2022/05/01 07:25:27;;;;;;;;;24.67;24.67;;;;;28.32;21.07;101837.00;5095376;27;45243;-81
2022/05/01 07:27:52;;;;;;;;;24.33;24.33;;;;;28.27;20.98;101841.75;5095007;27;46046;-81
2022/05/01 07:30:17;;;;;;;;;26.00;24.00;;;;;28.38;20.72;101854.97;5095309;27;45393;-81
2022/05/01 07:32:43;;;;;;;;;27.67;25.33;;;;;28.27;20.92;101847.22;5093956;27;45343;-81
2022/05/01 07:35:08;;;;;;;;;27.67;25.67;;;;;28.43;21.03;101850.22;5095443;27;45445;-81
2022/05/01 07:37:34;;;;;;;;;26.00;22.33;;;;;28.56;21.02;101869.75;5095049;27;46240;-81
2022/05/01 07:40:01;;;;;;;;;26.33;22.67;;;;;28.60;20.95;101865.94;5094862;27;45337;-81
2022/05/01 07:42:26;;;;;;;;;26.67;22.33;;;;;28.56;20.72;101837.00;5096750;27;45439;-81
2022/05/01 07:44:52;;;;;;;;;29.00;23.67;;;;;28.80;20.96;101826.06;5097037;27;45373;-81
2022/05/01 07:47:17;;;;;;;;;28.00;23.00;;;;;29.11;20.61;101844.81;5098578;27;45342;-81
2022/05/01 07:49:42;;;;;;;;;27.33;24.67;;;;;29.10;20.58;101832.13;5097072;27;45358;-81
2022/05/01 07:52:09;;;;;;;;;18.00;18.00;;;;;29.16;20.35;101841.91;5098478;27;45321;-81
2022/05/01 07:54:34;;;;;;;;;27.33;24.00;;;;;29.21;20.11;101839.84;5097101;27;45341;-81
2022/05/01 07:57:00;;;;;;;;;26.33;24.00;;;;;29.07;20.06;101837.69;5096454;27;48305;-81
2022/05/01 07:59:25;;;;;;;;;24.33;21.67;;;;;28.75;20.59;101839.91;5098336;27;45386;-81
2022/05/01 08:01:52;;;;;;;;;25.33;24.67;;;;;28.65;20.76;101843.94;5098349;27;45567;-81
2022/05/01 08:04:29;;;;;;;;;21.33;20.33;;;;;28.73;20.12;101839.06;5097326;27;45270;-81
2022/05/01 08:06:59;;;;;;;;;24.67;24.00;;;;;28.83;20.08;101847.78;5096690;27;48087;-81
2022/05/01 08:09:25;;;;;;;;;24.67;23.67;;;;;28.54;20.17;101823.41;5096523;27;45895;-81
2022/05/01 08:11:51;;;;;;;;;23.00;21.33;;;;;28.83;20.50;101817.75;5098273;27;45607;-81
2022/05/01 08:14:17;;;;;;;;;28.33;24.00;;;;;28.85;19.88;101818.59;5098351;27;45434;-81
2022/05/01 08:16:42;;;;;;;;;21.67;20.67;;;;;28.81;19.97;101814.19;5097895;27;45465;-81
2022/05/01 08:21:52;;;;;;;;;20.00;20.00;;;;;28.98;20.14;101828.03;5098266;27;45603;-81
2022/05/01 08:24:18;;;;;;;;;23.00;22.33;;;;;29.18;19.74;101829.94;5097743;27;45178;-81
2022/05/01 08:26:47;;;;;;;;;26.00;24.00;;;;;29.33;19.84;101830.28;5097764;27;45490;-81
2022/05/01 08:29:14;;;;;;;;;26.33;24.33;;;;;29.35;19.56;101829.28;5097909;27;45432;-81
2022/05/01 08:31:43;;;;;;;;;19.00;19.00;;;;;29.29;19.38;101806.78;5097883;27;45415;-81
2022/05/01 08:34:09;;;;;;;;;22.67;22.67;;;;;29.31;19.72;101822.16;5096575;27;45600;-81
2022/05/01 08:36:35;;;;;;;;;20.33;18.33;;;;;29.30;19.92;101812.16;5097596;27;45417;-81
2022/05/01 08:39:00;;;;;;;;;18.00;18.00;;;;;29.37;19.59;101802.75;5097021;27;45310;-81
2022/05/01 08:41:29;;;;;;;;;21.67;21.67;;;;;29.59;19.67;101826.41;5097832;27;45482;-81
2022/05/01 08:43:59;;;;;;;;;21.00;20.33;;;;;29.37;19.32;101819.16;5097640;27;45424;-81
2022/05/01 08:46:36;;;;;;;;;22.00;22.00;;;;;29.41;19.59;101831.72;5097287;27;46125;-81
2022/05/01 08:49:06;;;;;;;;;23.67;23.00;;;;;29.40;19.25;101809.94;5097249;27;45490;-81
2022/05/01 08:51:33;;;;;;;;;28.67;24.67;;;;;29.29;19.16;101820.44;5096124;27;45264;-81
2022/05/01 08:54:02;;;;;;;;;24.00;20.33;;;;;29.40;19.39;101829.06;5096074;27;45312;-81
2022/05/01 08:56:28;;;;;;;;;24.67;23.33;;;;;29.59;19.33;101812.72;5095921;27;47248;-80
2022/05/01 08:58:54;;;;;;;;;23.00;19.00;;;;;29.72;19.05;101819.44;5097005;27;45486;-81
2022/05/01 09:01:20;;;;;;;;;24.33;22.67;;;;;29.86;19.10;101823.41;5097525;27;45501;-80
2022/05/01 09:03:46;;;;;;;;;26.67;23.00;;;;;29.89;19.17;101794.09;5095940;27;45700;-80
2022/05/01 09:06:13;;;;;;;;;22.33;21.33;;;;;30.08;19.01;101824.22;5095618;27;48345;-80
2022/05/01 09:08:41;;;;;;;;;16.33;15.67;;;;;29.83;18.67;101793.44;5097044;27;45389;-80
2022/05/01 09:13:52;;;;;;;;;23.67;22.00;;;;;29.94;18.55;101807.53;5097141;27;45370;-81
2022/05/01 09:16:17;;;;;;;;;20.00;20.00;;;;;30.03;18.65;101787.97;5096892;27;46101;-81
2022/05/01 09:18:45;;;;;;;;;24.67;21.00;;;;;30.17;18.39;101802.84;5096825;27;45254;-80
2022/05/01 09:21:10;;;;;;;;;24.00;20.67;;;;;30.10;18.45;101786.72;5095909;27;45409;-81
2022/05/01 09:23:44;;;;;;;;;22.33;21.67;;;;;30.17;18.24;101792.81;5096839;27;45335;-81
2022/05/01 09:26:12;;;;;;;;;24.33;21.33;;;;;30.19;18.00;101796.34;5096691;27;46097;-81
2022/05/01 09:28:55;;;;;;;;;22.00;21.67;;;;;30.27;18.09;101801.47;5095507;27;45745;-81
2022/05/01 09:31:43;;;;;;;;;25.67;24.33;;;;;30.23;18.51;101794.38;5096997;27;45542;-81
2022/05/01 09:34:32;;;;;;;;;20.67;20.00;;;;;30.19;18.52;101793.59;5096841;27;45407;-81
2022/05/01 09:37:02;;;;;;;;;24.67;22.00;;;;;30.21;18.50;101794.44;5094987;27;47198;-81
2022/05/01 09:39:29;;;;;;;;;21.33;19.00;;;;;30.45;18.87;101797.88;5096317;27;45344;-80
2022/05/01 09:42:12;;;;;;;;;24.00;20.67;;;;;30.67;18.42;101796.81;5097010;27;45260;-80
2022/05/01 09:44:37;;;;;;;;;21.33;18.33;;;;;30.77;17.91;101765.28;5097132;27;45241;-81
2022/05/01 09:47:03;;;;;;;;;16.67;15.33;;;;;30.83;17.76;101768.66;5096570;27;45549;-80
2022/05/01 09:49:28;;;;;;;;;22.33;19.00;;;;;30.74;18.12;101773.63;5096652;27;45284;-81
2022/05/01 09:51:56;;;;;;;;;22.00;22.00;;;;;30.88;17.89;101770.19;5096309;27;45158;-81
2022/05/01 09:54:23;;;;;;;;;24.33;21.67;;;;;31.07;18.06;101785.72;5096536;27;45531;-80
2022/05/01 09:56:59;;;;;;;;;25.67;22.00;;;;;31.01;18.08;101781.44;5095959;27;45488;-80
2022/05/01 09:59:26;;;;;;;;;23.67;20.33;;;;;31.07;17.55;101786.63;5096355;27;45283;-81
2022/05/01 10:02:02;;;;;;;;;25.00;23.00;;;;;31.00;17.67;101776.94;5095395;27;45262;-80
2022/05/01 10:04:29;;;;;;;;;25.33;23.33;;;;;30.81;17.81;101770.59;5095367;27;45366;-81
2022/05/01 10:06:57;;;;;;;;;28.67;27.00;;;;;30.77;17.66;101764.38;5095852;27;46073;-81
2022/05/01 10:09:25;;;;;;;;;25.33;21.00;;;;;31.10;17.37;101767.28;5096265;27;45322;-81
2022/05/01 10:11:54;;;;;;;;;26.00;22.67;;;;;31.05;17.38;101760.28;5095100;27;45377;-81
2022/05/01 10:14:22;;;;;;;;;30.00;22.00;;;;;31.15;16.98;101778.00;5096425;27;45180;-81
2022/05/01 10:16:48;;;;;;;;;19.00;18.67;;;;;31.29;17.14;101752.63;5095913;27;45627;-80
2022/05/01 10:19:15;;;;;;;;;20.33;16.67;;;;;31.60;17.37;101765.63;5094610;27;45703;-81
2022/05/01 10:21:46;;;;;;;;;16.00;14.67;;;;;31.81;17.49;101769.06;5096147;27;45543;-81
2022/05/01 10:24:11;;;;;;;;;21.33;19.67;;;;;31.84;16.58;101750.66;5094928;27;45454;-81
2022/05/01 10:26:44;;;;;;;;;19.33;18.33;;;;;31.96;16.99;101749.97;5094733;27;47607;-80
2022/05/01 10:29:24;;;;;;;;;21.00;19.00;;;;;32.07;16.85;101754.88;5096135;27;45340;-81
2022/05/01 10:32:23;;;;;;;;;18.67;17.33;;;;;32.02;17.01;101749.63;5096366;27;45407;-81
2022/05/01 10:35:28;;;;;;;;;17.67;16.00;;;;;31.89;17.14;101737.56;5095813;27;45568;-81
2022/05/01 10:38:10;;;;;;;;;25.33;22.00;;;;;31.64;17.50;101733.41;5094435;27;48583;-81
2022/05/01 10:40:45;;;;;;;;;15.00;15.00;;;;;32.06;17.43;101739.38;5096021;27;45374;-81
2022/05/01 10:43:27;;;;;;;;;20.67;18.00;;;;;31.84;16.60;101691.16;5096017;27;45333;-81
2022/05/01 10:45:58;;;;;;;;;20.00;18.67;;;;;32.14;17.12;101731.63;5095799;27;45627;-80
2022/05/01 10:48:40;;;;;;;;;16.33;14.33;;;;;32.08;16.79;101718.19;5095436;27;45370;-80
2022/05/01 10:51:27;;;;;;;;;19.33;18.00;;;;;32.21;16.87;101733.03;5095690;27;45385;-80
2022/05/01 10:54:18;;;;;;;;;17.00;15.67;;;;;32.37;16.89;101733.03;5094463;27;45247;-81
2022/05/01 10:56:48;;;;;;;;;17.33;16.00;;;;;32.45;16.89;101713.38;5095770;27;45419;-80
2022/05/01 10:59:29;;;;;;;;;22.00;19.00;;;;;32.63;16.55;101716.88;5094223;27;46285;-80
2022/05/01 11:01:56;;;;;;;;;16.00;16.00;;;;;32.61;15.74;101699.63;5095665;27;45440;-81
2022/05/01 11:04:22;;;;;;;;;17.33;16.67;;;;;32.75;15.91;101709.81;5095565;27;45557;-81
2022/05/01 11:06:52;;;;;;;;;15.00;14.00;;;;;32.73;15.94;101695.28;5095896;27;45385;-81
2022/05/01 11:09:25;;;;;;;;;17.33;16.00;;;;;32.85;15.64;101694.53;5094379;27;46613;-81
2022/05/01 11:11:57;;;;;;;;;18.00;15.67;;;;;32.87;15.79;101699.94;5095460;27;45385;-81
2022/05/01 11:14:52;;;;;;;;;16.33;16.33;;;;;32.91;16.27;101704.28;5095643;27;45373;-81
2022/05/01 11:17:53;;;;;;;;;17.33;15.00;;;;;33.07;16.16;101677.63;5095449;27;45446;-81
2022/05/01 11:20:19;;;;;;;;;16.33;15.00;;;;;33.03;15.46;101697.16;5019042;28;47362;-81
2022/05/01 11:22:45;;;;;;;;;15.33;14.67;;;;;33.04;15.97;101685.16;5035980;28;45331;-81
2022/05/01 11:25:16;;;;;;;;;19.33;18.67;;;;;32.96;15.87;101685.66;5035766;28;45445;-81
2022/05/01 11:27:52;;;;;;;;;17.33;14.00;;;;;32.78;15.60;101660.16;5035970;28;45382;-81
2022/05/01 11:30:27;;;;;;;;;19.00;18.33;;;;;32.74;16.32;101686.97;5035735;28;45516;-81
2022/05/01 11:33:11;;;;;;;;;17.00;16.00;;;;;32.89;15.96;101673.28;5035358;28;45460;-81
2022/05/01 11:35:58;;;;;;;;;17.00;16.67;;;;;33.09;16.34;101681.16;5035813;28;45542;-81
2022/05/01 11:38:31;;;;;;;;;16.33;13.00;;;;;33.08;15.31;101671.16;5035676;28;45570;-80
2022/05/01 11:41:00;;;;;;;;;12.00;12.00;;;;;33.03;15.95;101661.44;5035393;28;45521;-81